Jefferson Hills, Pennsylvania
Current Conditions -  °F | °C
As of 6:25 PM on Thursday 27 Nov 2014 (Local Time) from KAGC Reporting Station
Overcast Overcast  
Wind Chill: 22°   Ceiling: 3500
Heat Index: 30°   Visibility: 10mi
Dew Point: 22°   Wind: 9mph
Humidity: 72%   Direction: 280°W
Pressure: 30.15"   Gusts: 18mph
Location:  40.2958°N, 79.9241°W
Report Text: KAGC 272325Z 28008G16KT 10SM FEW022 BKN035 OVC075 M01/M06 A3015 RMK AO2 T10111056
Loading
Personal Weather Stations






























Interactive Weather Map New forecast layout! Learn more

10-Day Weather Forecast

Advertisements
Track Severe Weather on mobile